createdAt,value
2019-05-03T00:02:24.461Z,99388.11
2019-05-03T00:04:56.076Z,99389.45
2019-05-03T00:07:23.151Z,99391.13
2019-05-03T00:09:52.045Z,99391.56
2019-05-03T00:12:19.396Z,99395.43
2019-05-03T00:14:48.878Z,99389.34
2019-05-03T00:17:15.945Z,99389.70
2019-05-03T00:19:43.009Z,99394.91
2019-05-03T00:22:12.223Z,99393.09
2019-05-03T00:24:39.036Z,99395.64
2019-05-03T00:27:06.191Z,99399.98
2019-05-03T00:29:33.264Z,99394.40
2019-05-03T00:32:01.898Z,99395.98
2019-05-03T00:34:34.592Z,99399.06
2019-05-03T00:37:03.797Z,99402.53
2019-05-03T00:39:37.718Z,99402.12
2019-05-03T00:42:04.817Z,99400.81
2019-05-03T00:44:31.910Z,99409.50
2019-05-03T00:46:58.990Z,99399.05
2019-05-03T00:49:26.046Z,99400.77
2019-05-03T00:51:53.119Z,99410.36
2019-05-03T00:54:22.161Z,99409.50
2019-05-03T00:56:49.159Z,99410.83
2019-05-03T00:59:16.247Z,99409.06
2019-05-03T01:01:43.321Z,99410.88
2019-05-03T01:04:11.854Z,99424.80
2019-05-03T01:06:39.098Z,99418.27
2019-05-03T01:09:11.747Z,99414.74
2019-05-03T01:11:41.830Z,99418.21
2019-05-03T01:14:09.097Z,99419.12
2019-05-03T01:16:36.161Z,99419.51
2019-05-03T01:19:03.238Z,99426.05
2019-05-03T01:21:31.709Z,99432.13
2019-05-03T01:23:58.772Z,99423.03
2019-05-03T01:26:25.878Z,99426.55
2019-05-03T01:28:52.961Z,99429.63
2019-05-03T01:31:20.021Z,99424.85
2019-05-03T01:33:47.095Z,99430.08
2019-05-03T01:36:14.267Z,99430.08
2019-05-03T01:38:42.382Z,99435.75
2019-05-03T01:41:09.501Z,99439.27
2019-05-03T01:43:36.574Z,99429.63
2019-05-03T01:46:03.644Z,99433.55
2019-05-03T01:48:52.109Z,99445.25
2019-05-03T01:51:38.819Z,99433.89
2019-05-03T01:54:05.920Z,99438.31
2019-05-03T01:56:32.978Z,99436.56
2019-05-03T01:59:01.766Z,99431.77
2019-05-03T02:01:35.633Z,99436.79
2019-05-03T02:04:09.746Z,99439.50
2019-05-03T02:06:36.811Z,99438.71
2019-05-03T02:09:05.926Z,99436.14
2019-05-03T02:11:33.055Z,99440.47
2019-05-03T02:14:01.722Z,99433.42
2019-05-03T02:16:29.000Z,99438.25
2019-05-03T02:18:56.070Z,99437.41
2019-05-03T02:21:23.130Z,99436.49
2019-05-03T02:23:51.924Z,99438.66
2019-05-03T02:26:19.166Z,99440.41
2019-05-03T02:28:46.238Z,99436.49
2019-05-03T02:31:13.826Z,99444.34
2019-05-03T02:33:43.436Z,99440.92
2019-05-03T02:36:10.198Z,99442.63
2019-05-03T02:38:37.589Z,99447.02
2019-05-03T02:41:04.659Z,99447.47
2019-05-03T02:43:36.672Z,99445.30
2019-05-03T02:46:11.683Z,99446.20
2019-05-03T02:49:01.123Z,99450.08
2019-05-03T02:51:28.197Z,99455.30
2019-05-03T02:53:57.053Z,99458.82
2019-05-03T02:56:26.105Z,99458.77
2019-05-03T02:58:55.613Z,99457.06
2019-05-03T03:01:26.069Z,99450.92
2019-05-03T03:03:52.459Z,99464.34
2019-05-03T03:06:21.622Z,99465.19
2019-05-03T03:08:49.680Z,99462.58
2019-05-03T03:11:17.565Z,99461.27
2019-05-03T03:13:45.947Z,99463.42
2019-05-03T03:16:15.621Z,99466.48
2019-05-03T03:18:42.076Z,99462.17
2019-05-03T03:21:16.066Z,99472.97
2019-05-03T03:23:56.196Z,99468.09
2019-05-03T03:26:37.674Z,99469.28
2019-05-03T03:29:01.269Z,99473.09
2019-05-03T03:32:00.147Z,99479.56
2019-05-03T03:34:32.214Z,99480.76
2019-05-03T03:37:05.215Z,99478.14
2019-05-03T03:39:29.013Z,99483.14
2019-05-03T03:41:57.380Z,99486.20
2019-05-03T03:44:25.846Z,99481.33
2019-05-03T03:46:56.197Z,99485.69
2019-05-03T03:49:26.287Z,99491.38
2019-05-03T03:51:56.153Z,99490.03
2019-05-03T03:54:22.640Z,99499.06
2019-05-03T03:57:01.571Z,99493.88
2019-05-03T03:59:26.517Z,99497.74
2019-05-03T04:01:55.124Z,99504.17
2019-05-03T04:04:25.738Z,99507.75
2019-05-03T04:06:52.264Z,99511.74
2019-05-03T04:09:19.962Z,99517.52
2019-05-03T04:11:47.450Z,99514.06
2019-05-03T04:14:18.768Z,99515.44
2019-05-03T04:17:09.187Z,99524.16
2019-05-03T04:19:37.226Z,99526.73
2019-05-03T04:22:05.929Z,99522.91
2019-05-03T04:24:35.125Z,99529.90
2019-05-03T04:27:17.739Z,99523.72
2019-05-03T04:29:37.891Z,99521.95
2019-05-03T04:32:07.323Z,99533.21
2019-05-03T04:34:36.252Z,99531.00
2019-05-03T04:37:05.357Z,99535.83
2019-05-03T04:39:32.727Z,99532.86
2019-05-03T04:41:59.907Z,99536.28
2019-05-03T04:44:26.985Z,99539.80
2019-05-03T04:46:56.120Z,99546.39
2019-05-03T04:49:26.219Z,99537.80
2019-05-03T04:51:56.025Z,99552.28
2019-05-03T04:54:45.069Z,99552.23
2019-05-03T04:57:11.844Z,99546.05
2019-05-03T04:59:38.969Z,99553.48
2019-05-03T05:02:06.419Z,99557.24
2019-05-03T05:04:35.773Z,99550.31
2019-05-03T05:07:02.542Z,99566.80
2019-05-03T05:09:29.736Z,99569.81
2019-05-03T05:11:56.966Z,99571.00
2019-05-03T05:14:25.918Z,99564.47
2019-05-03T05:16:55.709Z,99570.66
2019-05-03T05:19:30.209Z,99570.09
2019-05-03T05:22:03.239Z,99568.97
2019-05-03T05:24:30.515Z,99572.72
2019-05-03T05:27:17.361Z,99576.64
2019-05-03T05:29:45.081Z,99577.58
2019-05-03T05:32:14.364Z,99582.45
2019-05-03T05:34:41.223Z,99581.50
2019-05-03T05:37:08.286Z,99580.91
2019-05-03T05:39:35.850Z,99583.42
2019-05-03T05:42:04.520Z,99584.56
2019-05-03T05:44:31.834Z,99585.67
2019-05-03T05:47:08.611Z,99590.73
2019-05-03T05:49:57.734Z,99590.81
2019-05-03T05:52:24.823Z,99589.80
2019-05-03T05:55:25.264Z,99591.61
2019-05-03T05:58:20.854Z,99598.14
2019-05-03T06:00:55.202Z,99600.77
2019-05-03T06:03:22.354Z,99600.27
2019-05-03T06:05:49.727Z,99597.58
2019-05-03T06:08:27.589Z,99600.66
2019-05-03T06:11:26.313Z,99597.45
2019-05-03T06:14:05.009Z,99598.03
2019-05-03T06:16:47.971Z,99596.86
2019-05-03T06:19:25.398Z,99598.05
2019-05-03T06:22:10.780Z,99598.33
2019-05-03T06:24:42.864Z,99609.83
2019-05-03T06:27:19.469Z,99605.00
2019-05-03T06:29:48.346Z,99612.70
2019-05-03T06:32:31.281Z,99613.06
2019-05-03T06:34:58.350Z,99607.96
2019-05-03T06:37:28.306Z,99614.71
2019-05-03T06:39:55.381Z,99607.97
2019-05-03T06:42:23.031Z,99611.67
2019-05-03T06:44:50.225Z,99608.73
2019-05-03T06:47:17.286Z,99611.98
2019-05-03T06:49:48.330Z,99611.46
2019-05-03T06:52:19.850Z,99604.44
2019-05-03T06:54:44.929Z,99610.80
2019-05-03T06:57:15.928Z,99603.70
2019-05-03T06:59:48.334Z,99622.61
2019-05-03T07:02:40.782Z,99623.69
2019-05-03T07:05:15.305Z,99619.17
2019-05-03T07:07:50.878Z,99623.66
2019-05-03T07:10:27.028Z,99624.17
2019-05-03T07:13:04.998Z,99627.52
2019-05-03T07:15:32.243Z,99623.19
2019-05-03T07:17:59.514Z,99624.75
2019-05-03T07:20:26.712Z,99615.25
2019-05-03T07:22:55.740Z,99631.59
2019-05-03T07:25:25.331Z,99633.03
2019-05-03T07:27:52.380Z,99631.67
2019-05-03T07:30:19.651Z,99636.42
2019-05-03T07:32:50.398Z,99632.38
2019-05-03T07:35:17.469Z,99626.89
2019-05-03T07:37:45.096Z,99627.34
2019-05-03T07:40:14.859Z,99622.80
2019-05-03T07:42:42.056Z,99625.38
2019-05-03T07:45:09.522Z,99633.48
2019-05-03T07:47:36.584Z,99635.33
2019-05-03T07:50:05.087Z,99630.75
2019-05-03T07:52:32.232Z,99627.91
2019-05-03T07:54:59.300Z,99635.41
2019-05-03T07:57:36.784Z,99633.31
2019-05-03T08:00:05.049Z,99630.55
2019-05-03T08:02:32.168Z,99623.27
2019-05-03T08:04:59.230Z,99634.52
2019-05-03T08:07:28.438Z,99630.47
2019-05-03T08:09:55.737Z,99632.59
2019-05-03T08:12:24.702Z,99636.70
2019-05-03T08:14:51.944Z,99637.78
2019-05-03T08:17:20.899Z,99635.30
2019-05-03T08:19:49.726Z,99641.41
2019-05-03T08:22:16.798Z,99640.27
2019-05-03T08:24:44.805Z,99639.41
2019-05-03T08:27:11.951Z,99645.34
2019-05-03T08:29:39.022Z,99643.97
2019-05-03T08:32:35.353Z,99649.45
2019-05-03T08:35:24.448Z,99647.20
2019-05-03T08:37:54.737Z,99652.20
2019-05-03T08:40:24.667Z,99663.31
2019-05-03T08:42:54.844Z,99651.75
2019-05-03T08:45:25.566Z,99658.06
2019-05-03T08:47:57.013Z,99653.62
2019-05-03T08:50:25.685Z,99652.31
2019-05-03T08:52:52.906Z,99657.02
2019-05-03T08:55:19.984Z,99659.22
2019-05-03T08:57:47.047Z,99661.19
2019-05-03T09:00:16.261Z,99664.48
2019-05-03T09:02:44.764Z,99664.84
2019-05-03T09:05:12.602Z,99662.85
2019-05-03T09:07:39.667Z,99669.64
2019-05-03T09:10:16.856Z,99668.98
2019-05-03T09:13:06.153Z,99668.01
2019-05-03T09:15:34.988Z,99660.64
2019-05-03T09:18:04.630Z,99668.21
2019-05-03T09:20:32.435Z,99665.29
2019-05-03T09:22:59.923Z,99669.58
2019-05-03T09:25:27.035Z,99660.41
2019-05-03T09:27:55.217Z,99673.02
2019-05-03T09:30:22.459Z,99668.38
2019-05-03T09:32:51.354Z,99667.34
2019-05-03T09:35:29.563Z,99673.55
2019-05-03T09:37:47.403Z,99667.90
2019-05-03T09:40:15.228Z,99672.63
2019-05-03T09:42:44.510Z,99673.64
2019-05-03T09:45:12.541Z,99683.91
2019-05-03T09:47:39.603Z,99682.23
2019-05-03T09:50:07.231Z,99681.47
2019-05-03T09:52:35.535Z,99678.20
2019-05-03T09:55:05.395Z,99677.86
2019-05-03T09:57:34.639Z,99695.34
2019-05-03T10:00:01.661Z,99686.28
2019-05-03T10:02:28.724Z,99693.14
2019-05-03T10:04:55.816Z,99703.33
2019-05-03T10:07:22.889Z,99701.30
2019-05-03T10:09:49.961Z,99707.89
2019-05-03T10:12:19.982Z,99711.63
2019-05-03T10:14:47.052Z,99719.14
2019-05-03T10:17:40.354Z,99714.30
2019-05-03T10:20:09.851Z,99711.72
2019-05-03T10:22:36.932Z,99720.89
2019-05-03T10:25:05.233Z,99717.31
2019-05-03T10:27:45.704Z,99721.84
2019-05-03T10:30:24.156Z,99725.01
2019-05-03T10:32:57.363Z,99721.36
2019-05-03T10:35:24.713Z,99718.39
2019-05-03T10:37:51.870Z,99722.51
2019-05-03T10:40:25.232Z,99719.65
2019-05-03T10:42:52.299Z,99715.34
2019-05-03T10:45:19.375Z,99725.61
2019-05-03T10:47:46.465Z,99725.30
2019-05-03T10:50:15.590Z,99728.69
2019-05-03T10:52:48.079Z,99721.38
2019-05-03T10:55:15.968Z,99726.27
2019-05-03T10:57:45.874Z,99731.94
2019-05-03T11:00:41.726Z,99744.31
2019-05-03T11:02:50.098Z,99751.20
2019-05-03T11:05:17.171Z,99741.20
2019-05-03T11:07:45.138Z,99745.44
2019-05-03T11:10:14.578Z,99749.25
2019-05-03T11:12:41.523Z,99750.50
2019-05-03T11:15:09.300Z,99755.05
2019-05-03T11:17:36.384Z,99751.00
2019-05-03T11:20:05.276Z,99763.14
2019-05-03T11:22:34.566Z,99759.55
2019-05-03T11:25:01.394Z,99760.34
2019-05-03T11:27:35.426Z,99763.11
2019-05-03T11:30:04.946Z,99766.33
2019-05-03T11:32:40.820Z,99767.92
2019-05-03T11:35:29.058Z,99758.59
2019-05-03T11:38:26.666Z,99761.05
2019-05-03T11:40:55.806Z,99760.55
2019-05-03T11:43:24.561Z,99755.70
2019-05-03T11:45:51.684Z,99749.00
2019-05-03T11:48:18.795Z,99754.33
2019-05-03T11:50:45.873Z,99755.36
2019-05-03T11:53:14.579Z,99757.76
2019-05-03T11:55:41.739Z,99756.34
2019-05-03T11:58:21.677Z,99756.59
2019-05-03T12:01:12.997Z,99749.86
2019-05-03T12:03:37.674Z,99759.59
2019-05-03T12:06:05.035Z,99754.94
2019-05-03T12:08:32.223Z,99755.13
2019-05-03T12:11:01.615Z,99756.56
2019-05-03T12:13:29.868Z,99757.13
2019-05-03T12:15:57.436Z,99753.50
2019-05-03T12:18:25.423Z,99757.07
2019-05-03T12:20:56.105Z,99757.13
2019-05-03T12:23:22.742Z,99752.37
2019-05-03T12:25:51.533Z,99755.80
2019-05-03T12:28:19.150Z,99758.28
2019-05-03T12:30:46.223Z,99763.56
2019-05-03T12:33:15.342Z,99764.06
2019-05-03T12:35:42.317Z,99755.01
2019-05-03T12:38:09.395Z,99763.68
2019-05-03T12:40:36.518Z,99752.70
2019-05-03T12:43:06.105Z,99756.88
2019-05-03T12:45:35.000Z,99751.63
2019-05-03T12:48:01.907Z,99751.26
2019-05-03T12:50:28.979Z,99753.41
2019-05-03T12:52:56.080Z,99758.66
2019-05-03T12:55:24.788Z,99754.12
2019-05-03T12:57:52.018Z,99752.88
2019-05-03T13:00:48.750Z,99749.28
2019-05-03T13:03:20.409Z,99759.88
2019-05-03T13:05:47.490Z,99765.91
2019-05-03T13:08:54.725Z,99762.23
2019-05-03T13:11:21.573Z,99765.66
2019-05-03T13:13:48.635Z,99763.78
2019-05-03T13:16:18.416Z,99758.33
2019-05-03T13:18:47.292Z,99757.86
2019-05-03T13:21:15.519Z,99750.91
2019-05-03T13:23:42.602Z,99760.25
2019-05-03T13:26:10.779Z,99755.05
2019-05-03T13:28:37.931Z,99757.78
2019-05-03T13:31:05.948Z,99756.53
2019-05-03T13:33:34.753Z,99754.05
2019-05-03T13:36:02.191Z,99759.28
2019-05-03T13:38:29.403Z,99760.70
2019-05-03T13:40:57.132Z,99757.66
2019-05-03T13:43:24.314Z,99754.78
2019-05-03T13:45:51.438Z,99749.22
2019-05-03T13:48:20.927Z,99753.29
2019-05-03T13:50:47.518Z,99756.97
2019-05-03T13:53:16.121Z,99766.24
2019-05-03T13:55:44.540Z,99759.09
2019-05-03T13:58:11.760Z,99758.22
2019-05-03T14:00:38.832Z,99757.33
2019-05-03T14:03:05.907Z,99758.60
2019-05-03T14:05:35.168Z,99757.53
2019-05-03T14:08:04.832Z,99755.45
2019-05-03T14:10:31.566Z,99759.43
2019-05-03T14:12:58.704Z,99756.45
2019-05-03T14:15:25.777Z,99759.99
2019-05-03T14:17:54.680Z,99756.44
2019-05-03T14:20:40.143Z,99760.37
2019-05-03T14:23:07.217Z,99756.86
2019-05-03T14:25:35.112Z,99755.31
2019-05-03T14:28:02.344Z,99753.72
2019-05-03T14:30:29.625Z,99759.27
2019-05-03T14:32:56.915Z,99759.77
2019-05-03T14:35:25.096Z,99750.77
2019-05-03T14:37:52.211Z,99751.38
2019-05-03T14:40:19.327Z,99752.87
2019-05-03T14:42:46.426Z,99760.66
2019-05-03T14:45:15.098Z,99755.36
2019-05-03T14:47:42.491Z,99748.44
2019-05-03T14:50:09.658Z,99755.47
2019-05-03T14:52:36.779Z,99748.44
2019-05-03T14:55:14.586Z,99745.00
2019-05-03T14:57:49.770Z,99745.85
2019-05-03T15:00:29.311Z,99747.38
2019-05-03T15:02:59.874Z,99745.00
2019-05-03T15:05:26.950Z,99738.64
2019-05-03T15:07:55.819Z,99740.64
2019-05-03T15:10:22.999Z,99748.22
2019-05-03T15:12:50.075Z,99748.44
2019-05-03T15:15:19.072Z,99742.53
2019-05-03T15:17:46.155Z,99742.64
2019-05-03T15:20:14.779Z,99742.72
2019-05-03T15:22:42.031Z,99744.81
2019-05-03T15:25:09.526Z,99741.20
2019-05-03T15:27:37.174Z,99738.54
2019-05-03T15:30:06.357Z,99737.69
2019-05-03T15:32:35.379Z,99743.78
2019-05-03T15:35:04.676Z,99741.57
2019-05-03T15:37:31.932Z,99733.98
2019-05-03T15:39:59.449Z,99730.66
2019-05-03T15:42:27.337Z,99725.72
2019-05-03T15:45:15.165Z,99722.38
2019-05-03T15:48:04.389Z,99721.11
2019-05-03T15:50:31.910Z,99718.66
2019-05-03T15:52:59.037Z,99718.45
2019-05-03T15:55:26.385Z,99723.22
2019-05-03T15:57:55.269Z,99727.91
2019-05-03T16:00:24.464Z,99728.78
2019-05-03T16:02:51.705Z,99728.76
2019-05-03T16:05:19.001Z,99727.77
2019-05-03T16:07:46.096Z,99729.65
2019-05-03T16:10:15.311Z,99727.80
2019-05-03T16:12:44.943Z,99729.95
2019-05-03T16:15:12.199Z,99724.76
2019-05-03T16:17:39.269Z,99721.08
2019-05-03T16:20:07.658Z,99724.36
2019-05-03T16:22:36.042Z,99729.92
2019-05-03T16:25:05.164Z,99730.69
2019-05-03T16:27:55.204Z,99743.37
2019-05-03T16:30:29.959Z,99735.59
2019-05-03T16:32:57.031Z,99733.90
2019-05-03T16:35:25.611Z,99731.18
2019-05-03T16:37:54.368Z,99738.08
2019-05-03T16:40:21.606Z,99730.62
2019-05-03T16:42:48.676Z,99729.41
2019-05-03T16:45:16.998Z,99732.81
2019-05-03T16:47:44.818Z,99734.56
2019-05-03T16:50:12.097Z,99743.86
2019-05-03T16:52:39.161Z,99740.20
2019-05-03T16:55:06.234Z,99734.69
2019-05-03T16:57:35.277Z,99730.06
2019-05-03T17:00:02.492Z,99735.28
2019-05-03T17:02:29.559Z,99728.75
2019-05-03T17:05:04.757Z,99734.37
2019-05-03T17:07:41.112Z,99742.67
2019-05-03T17:10:31.182Z,99742.70
2019-05-03T17:12:58.276Z,99740.88
2019-05-03T17:15:25.483Z,99748.76
2019-05-03T17:17:52.578Z,99749.81
2019-05-03T17:20:19.641Z,99749.80
2019-05-03T17:22:47.829Z,99754.00
2019-05-03T17:25:15.106Z,99755.86
2019-05-03T17:27:42.192Z,99761.94
2019-05-03T17:30:10.379Z,99765.08
2019-05-03T17:32:37.458Z,99763.93
2019-05-03T17:35:05.328Z,99764.17
2019-05-03T17:37:34.541Z,99767.27
2019-05-03T17:40:34.884Z,99774.72
2019-05-03T17:43:27.762Z,99771.30
2019-05-03T17:45:55.928Z,99766.39
2019-05-03T17:48:23.020Z,99768.44
2019-05-03T17:50:50.194Z,99775.62
2019-05-03T17:53:46.142Z,99776.67
2019-05-03T17:56:38.729Z,99774.77
2019-05-03T17:59:09.242Z,99779.66
2019-05-03T18:02:04.143Z,99778.57
2019-05-03T18:04:44.991Z,99777.63
2019-05-03T18:07:24.319Z,99778.38
2019-05-03T18:09:51.724Z,99781.27
2019-05-03T18:12:18.940Z,99793.48
2019-05-03T18:14:46.158Z,99801.72
2019-05-03T18:17:14.812Z,99798.45
2019-05-03T18:19:42.046Z,99797.23
2019-05-03T18:22:09.121Z,99793.64
2019-05-03T18:24:36.235Z,99798.52
2019-05-03T18:27:03.535Z,99800.22
2019-05-03T18:29:31.683Z,99792.31
2019-05-03T18:31:58.826Z,99801.94
2019-05-03T18:34:25.928Z,99803.78
2019-05-03T18:36:54.819Z,99806.92
2019-05-03T18:39:21.891Z,99811.44
2019-05-03T18:41:48.964Z,99809.48
2019-05-03T18:44:29.074Z,99811.19
2019-05-03T18:47:02.031Z,99812.83
2019-05-03T18:49:29.154Z,99807.42
2019-05-03T18:51:57.377Z,99811.73
2019-05-03T18:54:24.659Z,99815.33
2019-05-03T18:56:51.925Z,99815.47
2019-05-03T18:59:19.014Z,99821.05
2019-05-03T19:01:46.077Z,99823.11
2019-05-03T19:04:18.265Z,99825.84
2019-05-03T19:06:45.370Z,99815.91
2019-05-03T19:09:30.581Z,99819.67
2019-05-03T19:12:23.463Z,99822.61
2019-05-03T19:14:51.739Z,99818.36
2019-05-03T19:17:43.763Z,99812.63
2019-05-03T19:20:15.370Z,99812.34
2019-05-03T19:22:42.397Z,99813.82
2019-05-03T19:25:09.778Z,99813.45
2019-05-03T19:27:36.895Z,99818.36
2019-05-03T19:30:04.727Z,99814.11
2019-05-03T19:32:31.830Z,99813.30
2019-05-03T19:34:58.943Z,99809.05
2019-05-03T19:37:26.129Z,99815.27
2019-05-03T19:39:55.050Z,99820.20
2019-05-03T19:42:26.935Z,99819.41
2019-05-03T19:44:52.297Z,99818.64
2019-05-03T19:47:19.465Z,99820.84
2019-05-03T19:49:46.490Z,99815.68
2019-05-03T19:52:16.155Z,99813.97
2019-05-03T19:54:44.875Z,99816.20
2019-05-03T19:57:15.209Z,99815.80
2019-05-03T19:59:56.347Z,99811.09
2019-05-03T20:02:30.230Z,99816.88
2019-05-03T20:05:16.848Z,99821.35
2019-05-03T20:08:02.529Z,99821.08
2019-05-03T20:10:31.724Z,99825.18
2019-05-03T20:12:58.818Z,99831.94
2019-05-03T20:15:27.002Z,99822.91
2019-05-03T20:17:59.753Z,99837.44
2019-05-03T20:20:23.064Z,99829.58
2019-05-03T20:22:50.136Z,99830.89
2019-05-03T20:25:17.205Z,99826.16
2019-05-03T20:27:44.618Z,99826.24
2019-05-03T20:30:12.371Z,99825.39
2019-05-03T20:32:39.452Z,99828.05
2019-05-03T20:35:16.683Z,99823.70
2019-05-03T20:37:35.739Z,99824.19
2019-05-03T20:40:04.883Z,99819.91
2019-05-03T20:42:52.030Z,99828.28
2019-05-03T20:45:24.921Z,99828.34
2019-05-03T20:47:55.102Z,99827.12
2019-05-03T20:50:22.239Z,99830.31
2019-05-03T20:52:49.334Z,99831.78
2019-05-03T20:55:16.410Z,99825.37
2019-05-03T20:57:44.393Z,99821.13
2019-05-03T21:00:14.960Z,99824.77
2019-05-03T21:02:51.582Z,99821.91
2019-05-03T21:05:23.813Z,99826.94
2019-05-03T21:07:40.324Z,99827.11
2019-05-03T21:10:07.877Z,99829.92
2019-05-03T21:12:34.954Z,99831.34
2019-05-03T21:15:04.961Z,99826.23
2019-05-03T21:17:55.548Z,99832.50
2019-05-03T21:20:45.076Z,99834.42
2019-05-03T21:23:14.751Z,99835.02
2019-05-03T21:26:03.546Z,99835.11
2019-05-03T21:28:16.159Z,99840.42
2019-05-03T21:30:45.355Z,99835.24
2019-05-03T21:33:12.226Z,99837.92
2019-05-03T21:35:41.911Z,99836.69
2019-05-03T21:38:08.279Z,99837.14
2019-05-03T21:40:39.830Z,99839.66
2019-05-03T21:43:06.895Z,99842.20
2019-05-03T21:45:45.192Z,99841.73
2019-05-03T21:48:16.534Z,99844.36
2019-05-03T21:50:44.618Z,99848.77
2019-05-03T21:53:11.926Z,99848.37
2019-05-03T21:55:39.012Z,99844.84
2019-05-03T21:58:06.082Z,99839.25
2019-05-03T22:00:58.630Z,99837.69
2019-05-03T22:03:26.011Z,99839.23
2019-05-03T22:05:56.002Z,99837.56
2019-05-03T22:08:22.104Z,99839.73
2019-05-03T22:10:49.575Z,99843.67
2019-05-03T22:13:17.353Z,99840.61
2019-05-03T22:15:48.705Z,99839.41
2019-05-03T22:18:26.308Z,99845.97
2019-05-03T22:21:15.750Z,99838.11
2019-05-03T22:24:01.179Z,99841.20
2019-05-03T22:26:46.763Z,99840.21
2019-05-03T22:29:17.132Z,99843.67
2019-05-03T22:31:45.234Z,99841.65
2019-05-03T22:34:15.068Z,99837.45
2019-05-03T22:36:44.272Z,99838.38
2019-05-03T22:39:11.505Z,99839.30
2019-05-03T22:41:38.594Z,99838.45
2019-05-03T22:44:05.756Z,99837.21
2019-05-03T22:46:34.675Z,99843.39
2019-05-03T22:49:01.756Z,99841.27
2019-05-03T22:51:28.844Z,99847.50
2019-05-03T22:53:55.904Z,99842.34
2019-05-03T22:56:24.783Z,99840.30
2019-05-03T22:58:51.946Z,99841.33
2019-05-03T23:01:19.005Z,99840.55
2019-05-03T23:03:46.082Z,99844.09
2019-05-03T23:06:22.434Z,99841.64
2019-05-03T23:08:43.438Z,99839.61
2019-05-03T23:11:10.618Z,99841.79
2019-05-03T23:13:37.694Z,99841.84
2019-05-03T23:16:05.189Z,99835.73
2019-05-03T23:18:32.326Z,99838.30
2019-05-03T23:21:06.318Z,99829.99
2019-05-03T23:23:49.280Z,99836.14
2019-05-03T23:26:16.390Z,99835.23
2019-05-03T23:28:44.602Z,99835.23
2019-05-03T23:31:11.794Z,99831.34
2019-05-03T23:33:38.863Z,99828.41
2019-05-03T23:36:05.956Z,99822.88
2019-05-03T23:38:33.061Z,99822.89
2019-05-03T23:41:00.105Z,99833.37
2019-05-03T23:43:27.164Z,99830.80
2019-05-03T23:45:54.604Z,99834.28
2019-05-03T23:48:21.746Z,99831.77
2019-05-03T23:50:48.802Z,99827.90
2019-05-03T23:53:15.868Z,99841.92
2019-05-03T23:55:56.880Z,99843.30
2019-05-03T23:58:24.645Z,99843.36
